sensor_id;sensor_type;location;lat;lon;timestamp;temperature;humidity
50013;DHT22;35901;48.694;9.476;2024-03-07T00:00:16;2.70;99.90
50013;DHT22;35901;48.694;9.476;2024-03-07T00:02:44;2.60;99.90
50013;DHT22;35901;48.694;9.476;2024-03-07T00:05:20;2.50;99.90
50013;DHT22;35901;48.694;9.476;2024-03-07T00:07:50;2.20;99.90
50013;DHT22;35901;48.694;9.476;2024-03-07T00:10:16;2.10;99.90
50013;DHT22;35901;48.694;9.476;2024-03-07T00:12:43;2.00;99.90
50013;DHT22;35901;48.694;9.476;2024-03-07T00:15:10;1.80;99.90
50013;DHT22;35901;48.694;9.476;2024-03-07T00:17:37;1.60;99.90
50013;DHT22;35901;48.694;9.476;2024-03-07T00:20:03;1.50;99.90
50013;DHT22;35901;48.694;9.476;2024-03-07T00:22:31;1.50;99.90
50013;DHT22;35901;48.694;9.476;2024-03-07T00:24:57;1.50;99.90
50013;DHT22;35901;48.694;9.476;2024-03-07T00:27:23;1.50;99.90
50013;DHT22;35901;48.694;9.476;2024-03-07T00:29:49;1.40;99.90
50013;DHT22;35901;48.694;9.476;2024-03-07T00:32:22;1.50;99.90
50013;DHT22;35901;48.694;9.476;2024-03-07T00:34:56;1.60;99.90
50013;DHT22;35901;48.694;9.476;2024-03-07T00:37:24;1.70;99.90
50013;DHT22;35901;48.694;9.476;2024-03-07T00:39:50;1.80;99.90
50013;DHT22;35901;48.694;9.476;2024-03-07T00:42:16;2.00;99.90
50013;DHT22;35901;48.694;9.476;2024-03-07T00:44:42;2.20;99.90
50013;DHT22;35901;48.694;9.476;2024-03-07T00:47:08;2.20;99.90
50013;DHT22;35901;48.694;9.476;2024-03-07T00:49:34;2.30;99.90
50013;DHT22;35901;48.694;9.476;2024-03-07T00:52:00;2.30;99.90
50013;DHT22;35901;48.694;9.476;2024-03-07T00:54:26;2.20;99.90
50013;DHT22;35901;48.694;9.476;2024-03-07T00:56:52;2.30;99.90
50013;DHT22;35901;48.694;9.476;2024-03-07T00:59:19;2.10;99.90
50013;DHT22;35901;48.694;9.476;2024-03-07T01:01:44;1.80;99.90
50013;DHT22;35901;48.694;9.476;2024-03-07T01:04:11;1.60;99.90
50013;DHT22;35901;48.694;9.476;2024-03-07T01:06:37;1.50;99.90
50013;DHT22;35901;48.694;9.476;2024-03-07T01:09:03;1.40;99.90
50013;DHT22;35901;48.694;9.476;2024-03-07T01:11:29;1.20;99.90
50013;DHT22;35901;48.694;9.476;2024-03-07T01:13:55;1.10;99.90
50013;DHT22;35901;48.694;9.476;2024-03-07T01:16:21;1.40;99.90
50013;DHT22;35901;48.694;9.476;2024-03-07T01:18:47;1.70;99.90
50013;DHT22;35901;48.694;9.476;2024-03-07T01:21:14;1.90;99.90
50013;DHT22;35901;48.694;9.476;2024-03-07T01:23:40;2.00;99.90
50013;DHT22;35901;48.694;9.476;2024-03-07T01:26:06;2.10;99.90
50013;DHT22;35901;48.694;9.476;2024-03-07T01:28:33;2.10;99.90
50013;DHT22;35901;48.694;9.476;2024-03-07T01:30:58;2.10;99.90
50013;DHT22;35901;48.694;9.476;2024-03-07T01:33:24;2.00;99.90
50013;DHT22;35901;48.694;9.476;2024-03-07T01:35:50;2.00;99.90
50013;DHT22;35901;48.694;9.476;2024-03-07T01:38:16;1.90;99.90
50013;DHT22;35901;48.694;9.476;2024-03-07T01:40:45;1.80;99.90
50013;DHT22;35901;48.694;9.476;2024-03-07T01:43:11;1.70;99.90
50013;DHT22;35901;48.694;9.476;2024-03-07T01:45:37;1.60;99.90
50013;DHT22;35901;48.694;9.476;2024-03-07T01:48:10;1.60;99.90
50013;DHT22;35901;48.694;9.476;2024-03-07T01:50:36;1.60;99.90
50013;DHT22;35901;48.694;9.476;2024-03-07T01:53:09;1.70;99.90
50013;DHT22;35901;48.694;9.476;2024-03-07T01:55:36;1.70;99.90
50013;DHT22;35901;48.694;9.476;2024-03-07T01:58:02;1.70;99.90
50013;DHT22;35901;48.694;9.476;2024-03-07T02:00:30;1.60;99.90
50013;DHT22;35901;48.694;9.476;2024-03-07T02:02:56;1.60;99.90
50013;DHT22;35901;48.694;9.476;2024-03-07T02:05:23;1.50;99.90
50013;DHT22;35901;48.694;9.476;2024-03-07T02:07:49;1.40;99.90
50013;DHT22;35901;48.694;9.476;2024-03-07T02:10:15;1.40;99.90
50013;DHT22;35901;48.694;9.476;2024-03-07T02:12:42;1.20;99.90
50013;DHT22;35901;48.694;9.476;2024-03-07T02:15:08;1.00;99.90
50013;DHT22;35901;48.694;9.476;2024-03-07T02:17:34;0.90;99.90
50013;DHT22;35901;48.694;9.476;2024-03-07T02:20:01;0.80;99.90
50013;DHT22;35901;48.694;9.476;2024-03-07T02:22:26;0.70;99.90
50013;DHT22;35901;48.694;9.476;2024-03-07T02:24:52;0.60;99.90
50013;DHT22;35901;48.694;9.476;2024-03-07T02:27:18;0.60;99.90
50013;DHT22;35901;48.694;9.476;2024-03-07T02:29:44;0.70;99.90
50013;DHT22;35901;48.694;9.476;2024-03-07T02:32:09;0.80;99.90
50013;DHT22;35901;48.694;9.476;2024-03-07T02:34:36;0.90;99.90
50013;DHT22;35901;48.694;9.476;2024-03-07T02:37:02;0.90;99.90
50013;DHT22;35901;48.694;9.476;2024-03-07T02:39:28;0.80;99.90
50013;DHT22;35901;48.694;9.476;2024-03-07T02:41:53;0.60;99.90
50013;DHT22;35901;48.694;9.476;2024-03-07T02:44:19;0.40;99.90
50013;DHT22;35901;48.694;9.476;2024-03-07T02:46:45;0.20;99.90
50013;DHT22;35901;48.694;9.476;2024-03-07T02:49:13;0.00;99.90
50013;DHT22;35901;48.694;9.476;2024-03-07T02:51:40;-0.10;99.90
50013;DHT22;35901;48.694;9.476;2024-03-07T02:54:07;-0.20;99.90
50013;DHT22;35901;48.694;9.476;2024-03-07T02:56:33;-0.30;99.90
50013;DHT22;35901;48.694;9.476;2024-03-07T02:58:59;-0.40;99.90
50013;DHT22;35901;48.694;9.476;2024-03-07T03:01:25;-0.30;99.90
50013;DHT22;35901;48.694;9.476;2024-03-07T03:03:51;-0.30;99.90
50013;DHT22;35901;48.694;9.476;2024-03-07T03:06:16;-0.30;99.90
50013;DHT22;35901;48.694;9.476;2024-03-07T03:08:42;-0.30;99.90
50013;DHT22;35901;48.694;9.476;2024-03-07T03:11:08;-0.30;99.90
50013;DHT22;35901;48.694;9.476;2024-03-07T03:13:40;-0.40;99.90
50013;DHT22;35901;48.694;9.476;2024-03-07T03:16:05;-0.40;99.90
50013;DHT22;35901;48.694;9.476;2024-03-07T03:18:35;-0.50;99.90
50013;DHT22;35901;48.694;9.476;2024-03-07T03:21:01;-0.40;99.90
50013;DHT22;35901;48.694;9.476;2024-03-07T03:23:30;-0.50;99.90
50013;DHT22;35901;48.694;9.476;2024-03-07T03:25:56;-0.50;99.90
50013;DHT22;35901;48.694;9.476;2024-03-07T03:28:23;-0.60;99.90
50013;DHT22;35901;48.694;9.476;2024-03-07T03:30:50;-0.60;99.90
50013;DHT22;35901;48.694;9.476;2024-03-07T03:33:17;-0.70;99.90
50013;DHT22;35901;48.694;9.476;2024-03-07T03:35:43;-0.60;99.90
50013;DHT22;35901;48.694;9.476;2024-03-07T03:38:09;-0.60;99.90
50013;DHT22;35901;48.694;9.476;2024-03-07T03:40:35;-0.60;99.90
50013;DHT22;35901;48.694;9.476;2024-03-07T03:43:00;-0.70;99.90
50013;DHT22;35901;48.694;9.476;2024-03-07T03:45:26;-0.80;99.90
50013;DHT22;35901;48.694;9.476;2024-03-07T03:47:52;-0.80;99.90
50013;DHT22;35901;48.694;9.476;2024-03-07T03:50:19;-0.90;99.90
50013;DHT22;35901;48.694;9.476;2024-03-07T03:52:44;-0.80;99.90
50013;DHT22;35901;48.694;9.476;2024-03-07T03:55:10;-0.80;99.90
50013;DHT22;35901;48.694;9.476;2024-03-07T03:57:41;-0.80;99.90
50013;DHT22;35901;48.694;9.476;2024-03-07T04:00:08;-0.80;99.90
50013;DHT22;35901;48.694;9.476;2024-03-07T04:02:43;-0.80;99.90
50013;DHT22;35901;48.694;9.476;2024-03-07T04:05:10;-0.90;99.90
50013;DHT22;35901;48.694;9.476;2024-03-07T04:07:37;-1.00;99.90
50013;DHT22;35901;48.694;9.476;2024-03-07T04:10:03;-1.00;99.90
50013;DHT22;35901;48.694;9.476;2024-03-07T04:12:29;-1.00;99.90
50013;DHT22;35901;48.694;9.476;2024-03-07T04:14:55;-1.00;99.90
50013;DHT22;35901;48.694;9.476;2024-03-07T04:17:21;-0.90;99.90
50013;DHT22;35901;48.694;9.476;2024-03-07T04:19:47;-0.70;99.90
50013;DHT22;35901;48.694;9.476;2024-03-07T04:22:13;-0.80;99.90
50013;DHT22;35901;48.694;9.476;2024-03-07T04:24:39;-1.00;99.90
50013;DHT22;35901;48.694;9.476;2024-03-07T04:27:06;-1.10;99.90
50013;DHT22;35901;48.694;9.476;2024-03-07T04:29:35;-1.10;99.90
50013;DHT22;35901;48.694;9.476;2024-03-07T04:32:02;-1.10;99.90
50013;DHT22;35901;48.694;9.476;2024-03-07T04:34:29;-1.10;99.90
50013;DHT22;35901;48.694;9.476;2024-03-07T04:36:58;-1.10;99.90
50013;DHT22;35901;48.694;9.476;2024-03-07T04:39:27;-1.10;99.90
50013;DHT22;35901;48.694;9.476;2024-03-07T04:42:02;-1.10;99.90
50013;DHT22;35901;48.694;9.476;2024-03-07T04:44:29;-1.10;99.90
50013;DHT22;35901;48.694;9.476;2024-03-07T04:46:55;-1.00;99.90
50013;DHT22;35901;48.694;9.476;2024-03-07T04:49:26;-1.00;99.90
50013;DHT22;35901;48.694;9.476;2024-03-07T04:51:56;-1.10;99.90
50013;DHT22;35901;48.694;9.476;2024-03-07T04:54:22;-1.10;99.90
50013;DHT22;35901;48.694;9.476;2024-03-07T04:56:49;-1.30;99.90
50013;DHT22;35901;48.694;9.476;2024-03-07T04:59:16;-1.30;99.90
50013;DHT22;35901;48.694;9.476;2024-03-07T05:01:43;-1.30;99.90
50013;DHT22;35901;48.694;9.476;2024-03-07T05:04:09;-1.30;99.90
50013;DHT22;35901;48.694;9.476;2024-03-07T05:06:34;-1.20;99.90
50013;DHT22;35901;48.694;9.476;2024-03-07T05:09:04;-1.20;99.90
50013;DHT22;35901;48.694;9.476;2024-03-07T05:11:33;-1.20;99.90
50013;DHT22;35901;48.694;9.476;2024-03-07T05:13:59;-1.10;99.90
50013;DHT22;35901;48.694;9.476;2024-03-07T05:16:26;-1.10;99.90
50013;DHT22;35901;48.694;9.476;2024-03-07T05:18:52;-1.10;99.90
50013;DHT22;35901;48.694;9.476;2024-03-07T05:21:21;-1.10;99.90
50013;DHT22;35901;48.694;9.476;2024-03-07T05:23:59;-1.10;99.90
50013;DHT22;35901;48.694;9.476;2024-03-07T05:26:25;-1.10;99.90
50013;DHT22;35901;48.694;9.476;2024-03-07T05:28:52;-1.10;99.90
50013;DHT22;35901;48.694;9.476;2024-03-07T05:31:20;-1.10;99.90
50013;DHT22;35901;48.694;9.476;2024-03-07T05:33:49;-1.00;99.90
50013;DHT22;35901;48.694;9.476;2024-03-07T05:36:15;-1.00;99.90
50013;DHT22;35901;48.694;9.476;2024-03-07T05:38:41;-0.90;99.90
50013;DHT22;35901;48.694;9.476;2024-03-07T05:41:13;-1.00;99.90
50013;DHT22;35901;48.694;9.476;2024-03-07T05:43:39;-1.00;99.90
50013;DHT22;35901;48.694;9.476;2024-03-07T05:46:06;-1.10;99.90
50013;DHT22;35901;48.694;9.476;2024-03-07T05:48:33;-1.10;99.90
50013;DHT22;35901;48.694;9.476;2024-03-07T05:50:59;-1.20;99.90
50013;DHT22;35901;48.694;9.476;2024-03-07T05:53:25;-1.20;99.90
50013;DHT22;35901;48.694;9.476;2024-03-07T05:55:51;-1.20;99.90
50013;DHT22;35901;48.694;9.476;2024-03-07T05:58:17;-1.30;99.90
50013;DHT22;35901;48.694;9.476;2024-03-07T06:00:48;-1.20;99.90
50013;DHT22;35901;48.694;9.476;2024-03-07T06:03:20;-1.10;99.90
50013;DHT22;35901;48.694;9.476;2024-03-07T06:05:47;-1.10;99.90
50013;DHT22;35901;48.694;9.476;2024-03-07T06:08:19;-1.00;99.90
50013;DHT22;35901;48.694;9.476;2024-03-07T06:10:45;-1.00;99.90
50013;DHT22;35901;48.694;9.476;2024-03-07T06:13:12;-0.90;99.90
50013;DHT22;35901;48.694;9.476;2024-03-07T06:15:42;-0.90;99.90
50013;DHT22;35901;48.694;9.476;2024-03-07T06:18:08;-0.90;99.90
50013;DHT22;35901;48.694;9.476;2024-03-07T06:20:36;-0.90;99.90
50013;DHT22;35901;48.694;9.476;2024-03-07T06:23:03;-0.90;99.90
50013;DHT22;35901;48.694;9.476;2024-03-07T06:25:31;-0.90;99.90
50013;DHT22;35901;48.694;9.476;2024-03-07T06:28:12;-0.90;99.90
50013;DHT22;35901;48.694;9.476;2024-03-07T06:30:40;-0.90;99.90
50013;DHT22;35901;48.694;9.476;2024-03-07T06:33:06;-0.90;99.90
50013;DHT22;35901;48.694;9.476;2024-03-07T06:35:32;-0.90;99.90
50013;DHT22;35901;48.694;9.476;2024-03-07T06:38:00;-0.90;99.90
50013;DHT22;35901;48.694;9.476;2024-03-07T06:40:26;-0.90;99.90
50013;DHT22;35901;48.694;9.476;2024-03-07T06:42:51;-0.90;99.90
50013;DHT22;35901;48.694;9.476;2024-03-07T06:45:18;-0.90;99.90
50013;DHT22;35901;48.694;9.476;2024-03-07T06:47:44;-0.90;99.90
50013;DHT22;35901;48.694;9.476;2024-03-07T06:50:10;-0.80;99.90
50013;DHT22;35901;48.694;9.476;2024-03-07T06:52:40;-0.80;99.90
50013;DHT22;35901;48.694;9.476;2024-03-07T06:55:06;-0.70;99.90
50013;DHT22;35901;48.694;9.476;2024-03-07T06:57:33;-0.60;99.90
50013;DHT22;35901;48.694;9.476;2024-03-07T07:00:02;-0.60;99.90
50013;DHT22;35901;48.694;9.476;2024-03-07T07:02:37;-0.50;99.90
50013;DHT22;35901;48.694;9.476;2024-03-07T07:05:07;-0.40;99.90
50013;DHT22;35901;48.694;9.476;2024-03-07T07:07:40;-0.30;99.90
50013;DHT22;35901;48.694;9.476;2024-03-07T07:10:08;-0.20;99.90
50013;DHT22;35901;48.694;9.476;2024-03-07T07:12:42;0.00;99.90
50013;DHT22;35901;48.694;9.476;2024-03-07T07:15:08;0.10;99.90
50013;DHT22;35901;48.694;9.476;2024-03-07T07:17:33;0.10;99.90
50013;DHT22;35901;48.694;9.476;2024-03-07T07:19:59;0.20;99.90
50013;DHT22;35901;48.694;9.476;2024-03-07T07:22:25;0.20;99.90
50013;DHT22;35901;48.694;9.476;2024-03-07T07:24:51;0.30;99.90
50013;DHT22;35901;48.694;9.476;2024-03-07T07:27:16;0.40;99.90
50013;DHT22;35901;48.694;9.476;2024-03-07T07:29:44;0.40;99.90
50013;DHT22;35901;48.694;9.476;2024-03-07T07:32:09;0.50;99.90
50013;DHT22;35901;48.694;9.476;2024-03-07T07:34:38;0.60;99.90
50013;DHT22;35901;48.694;9.476;2024-03-07T07:37:04;0.70;99.90
50013;DHT22;35901;48.694;9.476;2024-03-07T07:39:30;0.80;99.90
50013;DHT22;35901;48.694;9.476;2024-03-07T07:41:57;0.90;99.90
50013;DHT22;35901;48.694;9.476;2024-03-07T07:44:22;1.00;99.90
50013;DHT22;35901;48.694;9.476;2024-03-07T07:46:48;1.20;99.90
50013;DHT22;35901;48.694;9.476;2024-03-07T07:49:15;1.30;99.90
50013;DHT22;35901;48.694;9.476;2024-03-07T07:51:41;1.30;99.90
50013;DHT22;35901;48.694;9.476;2024-03-07T07:54:07;1.50;99.90
50013;DHT22;35901;48.694;9.476;2024-03-07T07:56:35;1.60;99.90
50013;DHT22;35901;48.694;9.476;2024-03-07T07:59:01;1.70;99.90
50013;DHT22;35901;48.694;9.476;2024-03-07T08:01:30;1.70;99.90
50013;DHT22;35901;48.694;9.476;2024-03-07T08:03:59;1.80;99.90
50013;DHT22;35901;48.694;9.476;2024-03-07T08:06:24;1.90;99.90
50013;DHT22;35901;48.694;9.476;2024-03-07T08:08:50;1.90;99.90
50013;DHT22;35901;48.694;9.476;2024-03-07T08:11:17;2.00;99.90
50013;DHT22;35901;48.694;9.476;2024-03-07T08:13:42;2.10;99.90
50013;DHT22;35901;48.694;9.476;2024-03-07T08:16:10;2.20;99.90
50013;DHT22;35901;48.694;9.476;2024-03-07T08:18:36;2.20;99.90
50013;DHT22;35901;48.694;9.476;2024-03-07T08:21:04;2.30;99.90
50013;DHT22;35901;48.694;9.476;2024-03-07T08:23:30;2.30;99.90
50013;DHT22;35901;48.694;9.476;2024-03-07T08:25:56;2.40;99.90
50013;DHT22;35901;48.694;9.476;2024-03-07T08:28:23;2.40;99.90
50013;DHT22;35901;48.694;9.476;2024-03-07T08:30:49;2.50;99.90
50013;DHT22;35901;48.694;9.476;2024-03-07T08:33:15;2.60;99.90
50013;DHT22;35901;48.694;9.476;2024-03-07T08:35:40;2.50;99.90
50013;DHT22;35901;48.694;9.476;2024-03-07T08:38:06;2.60;99.90
50013;DHT22;35901;48.694;9.476;2024-03-07T08:40:34;2.60;99.90
50013;DHT22;35901;48.694;9.476;2024-03-07T08:43:00;2.80;99.90
50013;DHT22;35901;48.694;9.476;2024-03-07T08:45:27;2.70;99.90
50013;DHT22;35901;48.694;9.476;2024-03-07T08:47:55;2.90;99.90
50013;DHT22;35901;48.694;9.476;2024-03-07T08:50:22;2.90;99.90
50013;DHT22;35901;48.694;9.476;2024-03-07T08:52:49;3.00;99.90
50013;DHT22;35901;48.694;9.476;2024-03-07T08:55:22;3.20;99.90
50013;DHT22;35901;48.694;9.476;2024-03-07T08:57:48;3.30;99.90
50013;DHT22;35901;48.694;9.476;2024-03-07T09:00:15;3.50;99.90
50013;DHT22;35901;48.694;9.476;2024-03-07T09:02:49;3.70;99.90
50013;DHT22;35901;48.694;9.476;2024-03-07T09:05:19;3.80;99.90
50013;DHT22;35901;48.694;9.476;2024-03-07T09:07:46;3.90;99.90
50013;DHT22;35901;48.694;9.476;2024-03-07T09:10:13;4.00;99.90
50013;DHT22;35901;48.694;9.476;2024-03-07T09:12:40;4.10;99.90
50013;DHT22;35901;48.694;9.476;2024-03-07T09:15:06;4.30;99.90
50013;DHT22;35901;48.694;9.476;2024-03-07T09:17:32;4.70;99.90
50013;DHT22;35901;48.694;9.476;2024-03-07T09:19:57;4.60;99.90
50013;DHT22;35901;48.694;9.476;2024-03-07T09:22:23;5.00;99.90
50013;DHT22;35901;48.694;9.476;2024-03-07T09:24:49;4.90;99.90
50013;DHT22;35901;48.694;9.476;2024-03-07T09:27:14;5.00;99.90
50013;DHT22;35901;48.694;9.476;2024-03-07T09:29:45;4.90;99.90
50013;DHT22;35901;48.694;9.476;2024-03-07T09:32:13;5.00;99.90
50013;DHT22;35901;48.694;9.476;2024-03-07T09:34:38;5.20;99.90
50013;DHT22;35901;48.694;9.476;2024-03-07T09:37:04;5.40;99.90
50013;DHT22;35901;48.694;9.476;2024-03-07T09:39:32;5.50;99.90
50013;DHT22;35901;48.694;9.476;2024-03-07T09:42:01;5.50;99.90
50013;DHT22;35901;48.694;9.476;2024-03-07T09:44:28;5.40;99.90
50013;DHT22;35901;48.694;9.476;2024-03-07T09:46:57;5.50;99.90
50013;DHT22;35901;48.694;9.476;2024-03-07T09:49:25;5.50;99.90
50013;DHT22;35901;48.694;9.476;2024-03-07T09:51:52;5.90;99.90
50013;DHT22;35901;48.694;9.476;2024-03-07T09:54:23;6.20;99.90
50013;DHT22;35901;48.694;9.476;2024-03-07T09:56:53;6.30;99.90
50013;DHT22;35901;48.694;9.476;2024-03-07T09:59:19;6.10;99.90
50013;DHT22;35901;48.694;9.476;2024-03-07T10:01:51;6.30;99.90
50013;DHT22;35901;48.694;9.476;2024-03-07T10:04:37;6.30;99.90
50013;DHT22;35901;48.694;9.476;2024-03-07T10:07:03;6.40;99.90
50013;DHT22;35901;48.694;9.476;2024-03-07T10:09:29;6.10;99.90
50013;DHT22;35901;48.694;9.476;2024-03-07T10:11:58;6.00;99.90
50013;DHT22;35901;48.694;9.476;2024-03-07T10:14:24;6.00;99.90
50013;DHT22;35901;48.694;9.476;2024-03-07T10:16:53;6.20;99.90
50013;DHT22;35901;48.694;9.476;2024-03-07T10:19:19;6.10;99.90
50013;DHT22;35901;48.694;9.476;2024-03-07T10:21:44;5.90;99.90
50013;DHT22;35901;48.694;9.476;2024-03-07T10:24:10;6.30;99.90
50013;DHT22;35901;48.694;9.476;2024-03-07T10:26:39;6.40;99.90
50013;DHT22;35901;48.694;9.476;2024-03-07T10:29:06;6.40;99.90
50013;DHT22;35901;48.694;9.476;2024-03-07T10:31:33;6.10;99.90
50013;DHT22;35901;48.694;9.476;2024-03-07T10:34:06;6.00;99.90
50013;DHT22;35901;48.694;9.476;2024-03-07T10:36:33;6.00;99.90
50013;DHT22;35901;48.694;9.476;2024-03-07T10:39:02;6.40;99.90
50013;DHT22;35901;48.694;9.476;2024-03-07T10:41:49;6.50;99.90
50013;DHT22;35901;48.694;9.476;2024-03-07T10:44:24;6.50;99.90
50013;DHT22;35901;48.694;9.476;2024-03-07T10:46:58;6.80;99.90
50013;DHT22;35901;48.694;9.476;2024-03-07T10:49:33;6.60;99.90
50013;DHT22;35901;48.694;9.476;2024-03-07T10:52:06;6.60;99.90
50013;DHT22;35901;48.694;9.476;2024-03-07T11:00:09;7.20;99.90
50013;DHT22;35901;48.694;9.476;2024-03-07T11:03:02;7.00;99.90
50013;DHT22;35901;48.694;9.476;2024-03-07T11:05:33;7.00;99.90
50013;DHT22;35901;48.694;9.476;2024-03-07T11:08:00;6.60;99.90
50013;DHT22;35901;48.694;9.476;2024-03-07T11:10:30;6.40;99.90
50013;DHT22;35901;48.694;9.476;2024-03-07T11:12:57;6.40;99.90
50013;DHT22;35901;48.694;9.476;2024-03-07T11:15:24;7.10;99.90
50013;DHT22;35901;48.694;9.476;2024-03-07T11:17:54;7.00;99.90
50013;DHT22;35901;48.694;9.476;2024-03-07T11:22:49;7.30;99.90
50013;DHT22;35901;48.694;9.476;2024-03-07T11:25:18;6.80;99.90
50013;DHT22;35901;48.694;9.476;2024-03-07T11:27:59;7.10;99.90
50013;DHT22;35901;48.694;9.476;2024-03-07T11:30:25;7.40;99.90
50013;DHT22;35901;48.694;9.476;2024-03-07T11:32:52;8.10;99.90
50013;DHT22;35901;48.694;9.476;2024-03-07T11:35:35;8.30;99.90
50013;DHT22;35901;48.694;9.476;2024-03-07T11:38:01;8.70;99.90
50013;DHT22;35901;48.694;9.476;2024-03-07T11:42:56;8.50;99.90
50013;DHT22;35901;48.694;9.476;2024-03-07T11:45:26;8.50;99.90
50013;DHT22;35901;48.694;9.476;2024-03-07T11:47:57;8.20;99.90
50013;DHT22;35901;48.694;9.476;2024-03-07T11:50:26;8.60;99.90
50013;DHT22;35901;48.694;9.476;2024-03-07T11:52:53;8.10;99.90
50013;DHT22;35901;48.694;9.476;2024-03-07T11:55:21;8.10;99.90
50013;DHT22;35901;48.694;9.476;2024-03-07T11:57:47;7.70;99.90
50013;DHT22;35901;48.694;9.476;2024-03-07T12:00:14;8.50;99.90
50013;DHT22;35901;48.694;9.476;2024-03-07T12:02:41;8.80;99.90
50013;DHT22;35901;48.694;9.476;2024-03-07T12:05:09;8.20;99.90
50013;DHT22;35901;48.694;9.476;2024-03-07T12:07:35;8.00;99.90
50013;DHT22;35901;48.694;9.476;2024-03-07T12:10:03;7.50;99.90
50013;DHT22;35901;48.694;9.476;2024-03-07T12:12:30;7.40;99.90
50013;DHT22;35901;48.694;9.476;2024-03-07T12:14:56;7.30;99.90
50013;DHT22;35901;48.694;9.476;2024-03-07T12:17:22;7.90;99.90
50013;DHT22;35901;48.694;9.476;2024-03-07T12:19:49;8.00;99.90
50013;DHT22;35901;48.694;9.476;2024-03-07T12:22:21;8.00;99.90
50013;DHT22;35901;48.694;9.476;2024-03-07T12:25:02;7.90;99.90
50013;DHT22;35901;48.694;9.476;2024-03-07T12:27:29;7.90;99.90
50013;DHT22;35901;48.694;9.476;2024-03-07T12:29:57;8.20;99.90
50013;DHT22;35901;48.694;9.476;2024-03-07T12:32:23;8.50;99.90
50013;DHT22;35901;48.694;9.476;2024-03-07T12:34:49;8.60;99.90
50013;DHT22;35901;48.694;9.476;2024-03-07T12:37:18;8.60;99.90
50013;DHT22;35901;48.694;9.476;2024-03-07T12:39:44;8.50;99.90
50013;DHT22;35901;48.694;9.476;2024-03-07T12:42:15;8.60;99.90
50013;DHT22;35901;48.694;9.476;2024-03-07T12:44:42;8.50;99.90
50013;DHT22;35901;48.694;9.476;2024-03-07T12:47:12;8.80;99.90
50013;DHT22;35901;48.694;9.476;2024-03-07T12:49:40;8.60;99.90
50013;DHT22;35901;48.694;9.476;2024-03-07T12:52:05;8.50;99.90
50013;DHT22;35901;48.694;9.476;2024-03-07T12:54:34;8.30;99.90
50013;DHT22;35901;48.694;9.476;2024-03-07T12:57:00;8.10;99.90
50013;DHT22;35901;48.694;9.476;2024-03-07T12:59:25;8.10;99.90
50013;DHT22;35901;48.694;9.476;2024-03-07T13:01:51;7.80;99.90
50013;DHT22;35901;48.694;9.476;2024-03-07T13:04:17;7.60;99.90
50013;DHT22;35901;48.694;9.476;2024-03-07T13:06:42;7.70;99.90
50013;DHT22;35901;48.694;9.476;2024-03-07T13:09:13;7.90;99.90
50013;DHT22;35901;48.694;9.476;2024-03-07T13:11:39;7.90;99.90
50013;DHT22;35901;48.694;9.476;2024-03-07T13:14:13;7.70;99.90
50013;DHT22;35901;48.694;9.476;2024-03-07T13:16:39;7.80;99.90
50013;DHT22;35901;48.694;9.476;2024-03-07T13:19:05;7.70;99.90
50013;DHT22;35901;48.694;9.476;2024-03-07T13:21:31;7.90;99.90
50013;DHT22;35901;48.694;9.476;2024-03-07T13:23:58;8.10;99.90
50013;DHT22;35901;48.694;9.476;2024-03-07T13:26:23;8.00;99.90
50013;DHT22;35901;48.694;9.476;2024-03-07T13:28:53;7.80;99.90
50013;DHT22;35901;48.694;9.476;2024-03-07T13:31:19;7.80;99.90
50013;DHT22;35901;48.694;9.476;2024-03-07T13:33:45;7.90;99.90
50013;DHT22;35901;48.694;9.476;2024-03-07T13:36:11;7.90;99.90
50013;DHT22;35901;48.694;9.476;2024-03-07T13:38:36;7.90;99.90
50013;DHT22;35901;48.694;9.476;2024-03-07T13:41:04;7.60;99.90
50013;DHT22;35901;48.694;9.476;2024-03-07T13:43:32;7.80;99.90
50013;DHT22;35901;48.694;9.476;2024-03-07T13:45:59;7.80;99.90
50013;DHT22;35901;48.694;9.476;2024-03-07T13:48:25;7.60;99.90
50013;DHT22;35901;48.694;9.476;2024-03-07T13:50:51;7.50;99.90
50013;DHT22;35901;48.694;9.476;2024-03-07T13:53:19;7.70;99.90
50013;DHT22;35901;48.694;9.476;2024-03-07T13:58:37;7.80;99.90
50013;DHT22;35901;48.694;9.476;2024-03-07T14:12:53;7.80;99.90
50013;DHT22;35901;48.694;9.476;2024-03-07T14:16:02;7.80;99.90
50013;DHT22;35901;48.694;9.476;2024-03-07T14:27:29;8.00;99.90
50013;DHT22;35901;48.694;9.476;2024-03-07T14:32:50;8.00;99.90
50013;DHT22;35901;48.694;9.476;2024-03-07T14:35:32;7.70;99.90
50013;DHT22;35901;48.694;9.476;2024-03-07T14:41:09;7.60;99.90
50013;DHT22;35901;48.694;9.476;2024-03-07T14:43:38;7.70;99.90
50013;DHT22;35901;48.694;9.476;2024-03-07T14:46:04;7.80;99.90
50013;DHT22;35901;48.694;9.476;2024-03-07T14:48:31;7.90;99.90
50013;DHT22;35901;48.694;9.476;2024-03-07T14:50:58;7.80;99.90
50013;DHT22;35901;48.694;9.476;2024-03-07T14:53:23;7.80;99.90
50013;DHT22;35901;48.694;9.476;2024-03-07T14:55:49;7.80;99.90
50013;DHT22;35901;48.694;9.476;2024-03-07T14:58:34;7.80;99.90
50013;DHT22;35901;48.694;9.476;2024-03-07T15:01:01;7.60;99.90
50013;DHT22;35901;48.694;9.476;2024-03-07T15:03:27;7.70;99.90
50013;DHT22;35901;48.694;9.476;2024-03-07T15:05:56;7.50;99.90
50013;DHT22;35901;48.694;9.476;2024-03-07T15:08:22;7.30;99.90
50013;DHT22;35901;48.694;9.476;2024-03-07T15:10:54;7.20;99.90
50013;DHT22;35901;48.694;9.476;2024-03-07T15:13:21;7.10;99.90
50013;DHT22;35901;48.694;9.476;2024-03-07T15:15:47;7.00;99.90
50013;DHT22;35901;48.694;9.476;2024-03-07T15:18:12;7.00;99.90
50013;DHT22;35901;48.694;9.476;2024-03-07T15:20:38;7.00;99.90
50013;DHT22;35901;48.694;9.476;2024-03-07T15:23:03;6.90;99.90
50013;DHT22;35901;48.694;9.476;2024-03-07T15:25:32;6.90;99.90
50013;DHT22;35901;48.694;9.476;2024-03-07T15:27:59;6.70;99.90
50013;DHT22;35901;48.694;9.476;2024-03-07T15:30:27;6.70;99.90
50013;DHT22;35901;48.694;9.476;2024-03-07T15:33:03;6.80;99.90
50013;DHT22;35901;48.694;9.476;2024-03-07T15:35:30;6.70;99.90
50013;DHT22;35901;48.694;9.476;2024-03-07T15:37:56;6.80;99.90
50013;DHT22;35901;48.694;9.476;2024-03-07T15:40:22;6.80;99.90
50013;DHT22;35901;48.694;9.476;2024-03-07T15:42:50;6.80;99.90
50013;DHT22;35901;48.694;9.476;2024-03-07T15:45:22;6.70;99.90
50013;DHT22;35901;48.694;9.476;2024-03-07T15:47:53;6.80;99.90
50013;DHT22;35901;48.694;9.476;2024-03-07T15:50:21;6.70;99.90
50013;DHT22;35901;48.694;9.476;2024-03-07T15:52:49;6.70;99.90
50013;DHT22;35901;48.694;9.476;2024-03-07T15:55:20;6.70;99.90
50013;DHT22;35901;48.694;9.476;2024-03-07T15:57:53;6.60;99.90
50013;DHT22;35901;48.694;9.476;2024-03-07T16:00:26;6.70;99.90
50013;DHT22;35901;48.694;9.476;2024-03-07T16:02:58;6.60;99.90
50013;DHT22;35901;48.694;9.476;2024-03-07T16:05:25;6.60;99.90
50013;DHT22;35901;48.694;9.476;2024-03-07T16:07:52;6.50;99.90
50013;DHT22;35901;48.694;9.476;2024-03-07T16:10:22;6.50;99.90
50013;DHT22;35901;48.694;9.476;2024-03-07T16:12:52;6.50;99.90
50013;DHT22;35901;48.694;9.476;2024-03-07T16:15:19;6.60;99.90
50013;DHT22;35901;48.694;9.476;2024-03-07T16:17:52;6.50;99.90
50013;DHT22;35901;48.694;9.476;2024-03-07T16:20:20;6.50;99.90
50013;DHT22;35901;48.694;9.476;2024-03-07T16:22:46;6.50;99.90
50013;DHT22;35901;48.694;9.476;2024-03-07T16:25:16;6.50;99.90